Time;durP1;ratioP1;P1;durP2;ratioP2;P2;SDS_P1;SDS_P2;PMS_P1;PMS_P2;Temp;Humidity;BMP_temperature;BMP_pressure;BME280_temperature;BME280_humidity;BME280_pressure;Samples;Min_cycle;Max_cycle;Signal;HPM_P1;HPM_P2
2021/01/06 00:01:10;;;;;;;33.53;21.83;;;4.20;99.90;;;;;;5033965;28;20616;-51
2021/01/06 00:03:36;;;;;;;34.67;21.37;;;4.20;99.90;;;;;;5033967;28;20267;-54
2021/01/06 00:06:09;;;;;;;34.90;20.80;;;4.20;99.90;;;;;;5015386;28;20176;-52
2021/01/06 00:08:35;;;;;;;31.40;20.60;;;4.30;99.90;;;;;;5034314;28;20200;-54
2021/01/06 00:11:01;;;;;;;36.93;21.33;;;4.30;99.90;;;;;;5034233;28;20184;-51
2021/01/06 00:13:28;;;;;;;31.37;19.50;;;4.20;99.90;;;;;;5027215;28;20238;-52
2021/01/06 00:15:55;;;;;;;36.67;22.03;;;4.10;99.90;;;;;;5015463;28;20200;-49
2021/01/06 00:18:22;;;;;;;36.33;21.20;;;4.00;99.90;;;;;;5014391;28;20680;-51
2021/01/06 00:20:48;;;;;;;37.10;21.67;;;4.00;99.90;;;;;;5015602;28;20173;-50
2021/01/06 00:23:13;;;;;;;38.27;22.10;;;4.00;99.90;;;;;;5015143;28;20185;-48
2021/01/06 00:25:42;;;;;;;36.27;21.90;;;4.10;99.90;;;;;;5015198;28;20172;-49
2021/01/06 00:28:10;;;;;;;38.40;21.77;;;4.20;99.90;;;;;;5015044;28;20775;-50
2021/01/06 00:30:42;;;;;;;34.67;21.30;;;4.20;99.90;;;;;;5016011;28;20169;-50
2021/01/06 00:33:11;;;;;;;38.67;22.40;;;4.20;99.90;;;;;;5015844;28;20172;-53
2021/01/06 00:35:37;;;;;;;39.33;22.80;;;4.20;99.90;;;;;;5015618;28;20235;-50
2021/01/06 00:38:04;;;;;;;39.87;22.97;;;4.20;99.90;;;;;;5015429;28;20213;-52
2021/01/06 00:40:32;;;;;;;37.17;21.87;;;4.20;99.90;;;;;;5015217;28;20263;-49
2021/01/06 00:42:58;;;;;;;37.93;22.60;;;4.30;99.90;;;;;;5015721;28;20177;-54
2021/01/06 00:45:25;;;;;;;38.37;21.27;;;4.30;99.90;;;;;;5015535;28;20185;-55
2021/01/06 00:47:50;;;;;;;38.27;22.43;;;4.30;99.90;;;;;;5014952;28;20200;-56
2021/01/06 00:50:19;;;;;;;39.07;21.90;;;4.40;99.90;;;;;;5014994;28;20193;-50
2021/01/06 00:52:44;;;;;;;39.80;21.63;;;4.40;99.90;;;;;;5015424;28;20732;-48
2021/01/06 00:55:10;;;;;;;39.00;22.57;;;4.30;99.90;;;;;;5015110;28;20259;-50
2021/01/06 00:57:35;;;;;;;34.53;20.67;;;4.30;99.90;;;;;;5014808;28;20259;-49
2021/01/06 01:00:01;;;;;;;35.37;21.13;;;4.20;99.90;;;;;;5013780;28;20180;-53
2021/01/06 01:02:27;;;;;;;36.67;20.93;;;4.20;99.90;;;;;;5014760;28;20204;-51
2021/01/06 01:04:52;;;;;;;35.67;20.80;;;4.30;99.90;;;;;;5022430;28;20306;-53
2021/01/06 01:07:18;;;;;;;36.27;21.93;;;4.30;99.90;;;;;;5033046;28;20267;-49
2021/01/06 01:09:45;;;;;;;35.63;21.30;;;4.30;99.90;;;;;;5034745;28;20191;-51
2021/01/06 01:12:12;;;;;;;38.33;21.57;;;4.30;99.90;;;;;;5034128;28;20180;-48
2021/01/06 01:14:38;;;;;;;35.30;21.47;;;4.30;99.90;;;;;;5031163;28;20270;-53
2021/01/06 01:17:04;;;;;;;34.40;21.33;;;4.30;99.90;;;;;;5030376;28;20276;-54
2021/01/06 01:19:30;;;;;;;34.90;20.60;;;4.30;99.90;;;;;;5032899;28;20223;-51
2021/01/06 01:21:55;;;;;;;30.87;19.97;;;4.20;99.90;;;;;;5034778;28;20172;-51
2021/01/06 01:24:21;;;;;;;37.63;20.93;;;4.20;99.90;;;;;;5033448;28;20246;-51
2021/01/06 01:26:51;;;;;;;36.27;21.63;;;4.10;99.90;;;;;;5034053;28;20179;-50
2021/01/06 01:29:16;;;;;;;34.00;21.00;;;4.10;99.90;;;;;;5032668;28;20416;-48
2021/01/06 01:31:45;;;;;;;34.47;21.13;;;4.20;99.90;;;;;;5034572;28;20187;-52
2021/01/06 01:34:11;;;;;;;33.30;20.70;;;4.20;99.90;;;;;;5033520;28;20176;-49
2021/01/06 01:36:36;;;;;;;38.70;22.10;;;4.10;99.90;;;;;;5034083;28;20230;-52
2021/01/06 01:39:03;;;;;;;36.53;22.10;;;4.10;99.90;;;;;;5034162;28;20298;-54
2021/01/06 01:41:28;;;;;;;34.83;21.03;;;4.10;99.90;;;;;;5033595;28;20214;-52
2021/01/06 01:43:54;;;;;;;37.20;21.77;;;4.10;99.90;;;;;;5034114;28;20215;-49
2021/01/06 01:46:19;;;;;;;36.83;21.93;;;3.90;99.90;;;;;;5032997;28;20207;-53
2021/01/06 01:48:48;;;;;;;39.03;22.03;;;3.90;99.90;;;;;;5033400;28;20214;-51
2021/01/06 01:51:16;;;;;;;37.47;21.30;;;3.90;99.90;;;;;;5033021;28;20188;-54
2021/01/06 01:54:03;;;;;;;36.40;21.80;;;4.00;99.90;;;;;;5034235;28;20239;-55
2021/01/06 01:57:05;;;;;;;36.00;20.93;;;4.00;99.90;;;;;;5033706;28;20192;-55
2021/01/06 01:59:45;;;;;;;39.07;21.00;;;4.10;99.90;;;;;;5032780;28;20202;-52
2021/01/06 02:02:23;;;;;;;36.83;20.90;;;3.90;99.90;;;;;;5034353;28;20659;-51
2021/01/06 02:04:54;;;;;;;34.73;20.43;;;3.70;99.90;;;;;;5033580;28;20186;-55
2021/01/06 02:07:25;;;;;;;34.00;19.83;;;3.70;99.90;;;;;;5032831;28;20237;-53
2021/01/06 02:10:06;;;;;;;34.07;20.87;;;3.70;99.90;;;;;;5032180;28;20198;-54
2021/01/06 02:12:43;;;;;;;36.00;21.43;;;3.70;99.90;;;;;;5033782;28;20187;-54
2021/01/06 02:15:33;;;;;;;34.63;20.20;;;3.70;99.90;;;;;;5032510;28;20528;-50
2021/01/06 02:17:58;;;;;;;32.80;20.13;;;3.70;99.90;;;;;;5012842;28;20226;-47
2021/01/06 02:20:26;;;;;;;32.10;19.87;;;3.70;99.90;;;;;;5034089;28;20176;-51
2021/01/06 02:22:52;;;;;;;30.23;19.37;;;3.60;99.90;;;;;;5028905;28;20184;-50
2021/01/06 02:25:20;;;;;;;31.93;19.37;;;3.50;99.90;;;;;;5013070;28;20658;-53
2021/01/06 02:27:46;;;;;;;31.07;18.67;;;3.60;99.90;;;;;;5013628;28;20255;-48
2021/01/06 02:30:13;;;;;;;27.97;18.90;;;3.60;99.90;;;;;;5013794;28;20255;-56
2021/01/06 02:32:40;;;;;;;29.30;18.67;;;3.60;99.90;;;;;;5013804;28;20208;-49
2021/01/06 02:35:08;;;;;;;28.77;18.23;;;3.50;99.90;;;;;;5014397;28;20222;-50
2021/01/06 02:37:34;;;;;;;29.40;18.23;;;3.50;99.90;;;;;;5013851;28;20183;-50
2021/01/06 02:39:59;;;;;;;29.67;18.87;;;3.50;99.90;;;;;;5027678;28;20191;-53
2021/01/06 02:42:26;;;;;;;29.80;19.33;;;3.60;99.90;;;;;;5033451;28;20208;-53
2021/01/06 02:44:51;;;;;;;29.17;18.47;;;3.50;99.90;;;;;;5033356;28;20195;-54
2021/01/06 02:47:17;;;;;;;26.33;16.87;;;3.60;99.90;;;;;;5032363;28;20231;-50
2021/01/06 02:49:44;;;;;;;28.17;18.13;;;3.70;99.90;;;;;;5036739;28;20266;-50
2021/01/06 02:52:30;;;;;;;27.83;17.43;;;3.80;99.90;;;;;;5037787;28;20172;-49
2021/01/06 02:54:56;;;;;;;29.63;18.50;;;3.90;99.90;;;;;;5035345;28;20172;-48
2021/01/06 02:57:23;;;;;;;27.17;17.63;;;4.00;99.90;;;;;;5035058;28;20214;-52
2021/01/06 02:59:49;;;;;;;26.93;17.90;;;4.00;99.90;;;;;;5037402;28;20246;-49
2021/01/06 03:02:19;;;;;;;26.73;17.83;;;4.00;99.90;;;;;;5036891;28;20184;-53
2021/01/06 03:04:50;;;;;;;27.27;17.80;;;3.80;99.90;;;;;;5036955;28;20282;-50
2021/01/06 03:07:18;;;;;;;27.27;17.57;;;3.80;99.90;;;;;;5019584;28;20220;-52
2021/01/06 03:09:44;;;;;;;27.27;17.30;;;3.70;99.90;;;;;;5036509;28;20196;-50
2021/01/06 03:12:19;;;;;;;26.90;17.23;;;3.80;99.90;;;;;;5036151;28;20548;-49
2021/01/06 03:14:45;;;;;;;27.27;17.17;;;3.80;99.90;;;;;;5037529;28;20174;-50
2021/01/06 03:17:14;;;;;;;26.13;17.77;;;3.70;99.90;;;;;;5037275;28;20232;-50
2021/01/06 03:19:44;;;;;;;24.67;16.80;;;3.90;99.90;;;;;;5036273;28;20203;-51
2021/01/06 03:22:13;;;;;;;23.87;15.57;;;3.90;99.90;;;;;;5037408;28;20176;-50
2021/01/06 03:24:49;;;;;;;22.80;15.60;;;3.90;99.90;;;;;;5035898;28;20572;-48
2021/01/06 03:27:15;;;;;;;24.27;16.20;;;4.00;99.90;;;;;;5036007;28;20172;-49
2021/01/06 03:29:44;;;;;;;24.07;15.80;;;4.00;99.90;;;;;;5037287;28;20282;-54
2021/01/06 03:32:32;;;;;;;20.77;14.77;;;4.10;99.90;;;;;;5036408;28;20180;-53
2021/01/06 03:35:31;;;;;;;20.50;14.87;;;4.10;99.90;;;;;;5036872;28;20180;-50
2021/01/06 03:38:10;;;;;;;19.87;14.47;;;4.10;99.90;;;;;;4955742;29;20611;-54
2021/01/06 03:40:38;;;;;;;18.17;13.33;;;4.10;99.90;;;;;;4956537;29;20178;-48
2021/01/06 03:43:07;;;;;;;19.57;13.90;;;4.20;99.90;;;;;;4953349;29;20209;-54
2021/01/06 03:45:36;;;;;;;19.50;14.00;;;4.20;99.90;;;;;;4956320;29;20182;-52
2021/01/06 03:48:35;;;;;;;17.97;13.37;;;4.20;99.90;;;;;;4936612;29;20211;-53
2021/01/06 03:51:20;;;;;;;18.53;13.83;;;4.20;99.90;;;;;;4948100;29;20669;-50
2021/01/06 03:53:49;;;;;;;18.60;13.57;;;4.10;99.90;;;;;;4955829;29;20198;-54
2021/01/06 03:56:21;;;;;;;20.20;13.87;;;4.20;99.90;;;;;;4955879;29;20182;-50
2021/01/06 03:59:22;;;;;;;20.13;15.03;;;4.20;99.90;;;;;;4954330;28;20675;-52
2021/01/06 04:02:00;;;;;;;20.93;14.50;;;4.20;99.90;;;;;;4917570;29;20699;-48
2021/01/06 04:04:37;;;;;;;18.63;13.67;;;4.30;99.90;;;;;;4917783;29;20699;-49
2021/01/06 04:07:05;;;;;;;19.00;14.60;;;4.20;99.90;;;;;;4917717;29;20572;-51
2021/01/06 04:09:33;;;;;;;22.43;15.27;;;4.20;99.90;;;;;;4917615;29;20756;-54
2021/01/06 04:12:04;;;;;;;24.17;16.13;;;4.20;99.90;;;;;;4917652;29;20223;-56
2021/01/06 04:14:30;;;;;;;21.47;15.70;;;4.10;99.90;;;;;;4949224;28;20189;-50
2021/01/06 04:16:55;;;;;;;21.93;15.03;;;4.10;99.90;;;;;;4975064;28;20479;-52
2021/01/06 04:19:21;;;;;;;22.07;14.70;;;4.10;99.90;;;;;;4975178;28;20249;-51
2021/01/06 04:21:47;;;;;;;22.77;15.90;;;4.10;99.90;;;;;;4975618;28;20189;-49
2021/01/06 04:24:13;;;;;;;22.87;16.50;;;4.10;99.90;;;;;;4975097;28;20238;-53
2021/01/06 04:26:39;;;;;;;21.40;15.40;;;4.10;99.90;;;;;;4975022;28;20191;-49
2021/01/06 04:29:05;;;;;;;21.33;15.30;;;4.10;99.90;;;;;;4975346;28;20197;-52
2021/01/06 04:31:31;;;;;;;21.73;15.63;;;4.00;99.90;;;;;;4975486;28;20197;-53
2021/01/06 04:33:56;;;;;;;21.27;14.83;;;4.00;99.90;;;;;;4974941;28;20281;-54
2021/01/06 04:36:25;;;;;;;24.43;15.53;;;4.00;99.90;;;;;;4982075;28;20214;-55
2021/01/06 04:38:54;;;;;;;22.50;15.63;;;4.00;99.90;;;;;;5036098;28;20237;-56
2021/01/06 04:41:25;;;;;;;23.20;16.27;;;4.00;99.90;;;;;;5035876;28;20172;-53
2021/01/06 04:44:09;;;;;;;21.93;15.63;;;4.00;99.90;;;;;;5035956;28;20163;-54
2021/01/06 04:47:02;;;;;;;20.47;14.87;;;3.90;99.90;;;;;;5035533;28;20294;-53
2021/01/06 04:49:43;;;;;;;21.17;14.97;;;4.00;99.90;;;;;;5035652;28;20220;-49
2021/01/06 04:52:35;;;;;;;22.07;15.20;;;3.90;99.90;;;;;;5035234;28;20168;-52
2021/01/06 04:55:34;;;;;;;20.07;15.30;;;3.90;99.90;;;;;;5035603;28;20270;-50
2021/01/06 04:58:18;;;;;;;21.30;15.80;;;3.80;99.90;;;;;;5035114;28;20208;-52
2021/01/06 05:00:52;;;;;;;23.07;15.80;;;3.80;99.90;;;;;;5035625;28;20160;-55
2021/01/06 05:03:41;;;;;;;21.63;15.43;;;3.90;99.90;;;;;;5035083;28;20193;-50
2021/01/06 05:06:09;;;;;;;20.63;14.93;;;3.90;99.90;;;;;;5035079;28;20707;-49
2021/01/06 05:08:45;;;;;;;22.83;15.40;;;3.90;99.90;;;;;;5034388;28;20544;-52
2021/01/06 05:11:18;;;;;;;22.30;15.33;;;4.00;99.90;;;;;;5034440;28;20203;-49
2021/01/06 05:14:18;;;;;;;21.03;15.13;;;4.10;99.90;;;;;;5032788;28;21331;-52
2021/01/06 05:16:50;;;;;;;20.53;14.50;;;3.90;99.90;;;;;;5032571;28;20179;-52
2021/01/06 05:19:24;;;;;;;22.40;15.70;;;3.90;99.90;;;;;;5027793;28;20246;-54
2021/01/06 05:21:51;;;;;;;22.10;15.17;;;5.10;99.90;;;;;;5034472;28;20266;-49
2021/01/06 05:24:40;;;;;;;23.33;16.27;;;3.70;99.90;;;;;;5033342;28;20180;-49
2021/01/06 05:27:14;;;;;;;21.53;14.60;;;3.70;99.90;;;;;;5034919;28;20516;-50
2021/01/06 05:29:59;;;;;;;22.47;15.03;;;3.70;99.90;;;;;;5031160;28;20253;-50
2021/01/06 05:32:28;;;;;;;23.50;16.17;;;3.60;99.90;;;;;;5034484;28;20191;-53
2021/01/06 05:35:02;;;;;;;22.00;14.87;;;3.70;99.90;;;;;;5034365;28;20172;-53
2021/01/06 05:37:28;;;;;;;22.87;16.13;;;3.60;99.90;;;;;;5033994;28;20305;-50
2021/01/06 05:39:59;;;;;;;20.67;13.90;;;3.50;99.90;;;;;;5025274;28;20201;-50
2021/01/06 05:42:32;;;;;;;20.50;14.23;;;3.30;99.90;;;;;;5034036;28;20230;-52
2021/01/06 05:44:59;;;;;;;18.20;13.67;;;3.30;99.90;;;;;;5034638;28;20184;-53
2021/01/06 05:47:49;;;;;;;21.67;14.03;;;3.30;99.90;;;;;;5034171;28;20663;-49
2021/01/06 05:50:23;;;;;;;19.63;14.73;;;3.40;99.90;;;;;;5031548;28;20615;-54
2021/01/06 05:53:19;;;;;;;20.13;14.77;;;3.40;99.90;;;;;;5032574;28;20183;-50
2021/01/06 05:55:47;;;;;;;21.70;15.03;;;3.40;99.90;;;;;;5014353;28;20215;-51
2021/01/06 05:58:27;;;;;;;19.90;15.20;;;3.40;99.90;;;;;;5014361;28;20220;-50
2021/01/06 06:00:59;;;;;;;19.67;14.13;;;3.50;99.90;;;;;;5032000;28;20651;-50
2021/01/06 06:03:27;;;;;;;28.23;18.23;;;3.60;99.90;;;;;;5034211;28;20357;-49
2021/01/06 06:06:24;;;;;;;24.53;17.20;;;3.50;99.90;;;;;;5033729;28;20183;-50
2021/01/06 06:09:17;;;;;;;22.80;16.43;;;3.30;99.90;;;;;;5029083;28;20212;-55
2021/01/06 06:12:06;;;;;;;23.87;17.53;;;3.30;99.90;;;;;;5027167;28;20730;-52
2021/01/06 06:14:53;;;;;;;24.33;16.87;;;3.20;99.90;;;;;;5033059;28;20497;-49
2021/01/06 06:17:43;;;;;;;24.67;17.80;;;3.30;99.90;;;;;;5027534;28;20423;-49
2021/01/06 06:20:43;;;;;;;26.40;16.90;;;3.20;99.90;;;;;;5029412;28;20203;-52
2021/01/06 06:23:33;;;;;;;22.00;15.90;;;3.30;99.90;;;;;;5030586;28;20176;-54
2021/01/06 06:26:08;;;;;;;19.40;14.60;;;3.30;99.90;;;;;;5022360;28;20310;-54
2021/01/06 06:28:42;;;;;;;19.53;13.90;;;3.30;99.90;;;;;;5030309;28;20230;-50
2021/01/06 06:31:30;;;;;;;18.03;13.73;;;3.40;99.90;;;;;;5033369;28;20198;-50
2021/01/06 06:34:04;;;;;;;20.77;13.83;;;3.40;99.90;;;;;;5034619;28;20187;-50
2021/01/06 06:36:33;;;;;;;17.10;12.93;;;3.50;99.90;;;;;;5033650;28;20175;-56
2021/01/06 06:39:13;;;;;;;20.13;14.83;;;3.50;99.90;;;;;;5032760;28;20219;-51
2021/01/06 06:41:39;;;;;;;19.53;14.60;;;3.60;99.90;;;;;;5028994;28;20206;-51
2021/01/06 06:44:23;;;;;;;21.80;14.87;;;3.60;99.90;;;;;;5032557;28;20225;-54
2021/01/06 06:47:02;;;;;;;17.87;13.20;;;3.40;99.90;;;;;;5028542;28;20691;-51
2021/01/06 06:49:33;;;;;;;17.23;12.90;;;3.50;99.90;;;;;;5031007;28;20210;-54
2021/01/06 06:52:26;;;;;;;18.77;13.70;;;3.40;99.90;;;;;;5033290;28;20218;-51
2021/01/06 06:55:11;;;;;;;18.37;13.63;;;3.50;99.90;;;;;;4996344;28;20173;-50
2021/01/06 06:57:50;;;;;;;19.23;13.70;;;3.40;99.90;;;;;;5022458;28;20184;-48
2021/01/06 07:00:23;;;;;;;18.07;13.30;;;3.30;99.90;;;;;;5030489;28;20548;-53
2021/01/06 07:02:55;;;;;;;16.33;12.43;;;3.30;99.90;;;;;;5029897;28;20190;-50
2021/01/06 07:05:46;;;;;;;18.50;13.67;;;3.40;99.90;;;;;;5032683;28;20187;-50
2021/01/06 07:08:20;;;;;;;18.10;13.17;;;3.30;99.90;;;;;;5023095;28;20215;-49
2021/01/06 07:10:54;;;;;;;17.03;12.80;;;3.30;99.90;;;;;;5030894;28;20200;-54
2021/01/06 07:13:21;;;;;;;17.30;12.57;;;3.40;99.90;;;;;;5031453;28;20183;-50
2021/01/06 07:16:05;;;;;;;17.77;12.77;;;3.50;99.90;;;;;;5032495;28;20222;-56
2021/01/06 07:18:48;;;;;;;17.23;12.30;;;3.60;99.90;;;;;;5026260;28;20230;-52
2021/01/06 07:21:17;;;;;;;15.73;11.60;;;3.60;99.90;;;;;;5028982;28;20199;-49
2021/01/06 07:24:10;;;;;;;17.20;12.70;;;3.70;99.90;;;;;;5025768;28;20584;-50
2021/01/06 07:26:53;;;;;;;17.60;12.57;;;3.90;99.90;;;;;;5019688;28;20270;-48
2021/01/06 07:29:20;;;;;;;14.70;11.33;;;3.90;99.90;;;;;;5021415;28;20221;-51
2021/01/06 07:31:59;;;;;;;15.00;11.40;;;4.00;99.90;;;;;;5037259;28;20179;-56
2021/01/06 07:34:39;;;;;;;14.37;11.50;;;4.00;99.90;;;;;;5021152;28;20579;-57
2021/01/06 07:37:07;;;;;;;16.40;11.93;;;4.10;99.90;;;;;;5018539;28;20254;-50
2021/01/06 07:39:35;;;;;;;18.90;11.90;;;4.10;99.90;;;;;;5035498;28;20249;-48
2021/01/06 07:42:06;;;;;;;15.93;11.97;;;4.20;99.90;;;;;;5033831;28;20180;-49
2021/01/06 07:44:37;;;;;;;18.20;14.20;;;4.20;99.90;;;;;;5021500;28;20187;-51
2021/01/06 07:47:12;;;;;;;17.43;12.77;;;4.30;99.90;;;;;;5037477;28;20261;-52
2021/01/06 07:49:40;;;;;;;19.07;14.80;;;4.30;99.90;;;;;;5036875;28;20198;-55
2021/01/06 07:52:38;;;;;;;20.47;16.30;;;4.40;99.90;;;;;;5000753;28;20180;-54
2021/01/06 07:55:35;;;;;;;19.03;14.83;;;4.40;99.90;;;;;;5015289;28;20257;-53
2021/01/06 07:58:10;;;;;;;18.23;14.13;;;4.50;99.90;;;;;;5002413;28;20687;-49
2021/01/06 08:00:56;;;;;;;16.40;12.80;;;4.50;99.90;;;;;;5016766;28;20613;-48
2021/01/06 08:03:29;;;;;;;17.67;13.23;;;4.50;99.90;;;;;;5024012;28;20285;-50
2021/01/06 08:06:00;;;;;;;17.87;14.03;;;4.50;99.90;;;;;;5035996;28;20172;-52
2021/01/06 08:08:29;;;;;;;17.63;13.37;;;4.50;99.90;;;;;;5036450;28;20660;-53
2021/01/06 08:11:06;;;;;;;18.23;13.67;;;4.50;99.90;;;;;;5036297;28;20629;-49
2021/01/06 08:13:36;;;;;;;17.07;12.90;;;4.50;99.90;;;;;;5036256;28;20184;-52
2021/01/06 08:16:28;;;;;;;19.10;14.77;;;4.60;99.90;;;;;;5035439;28;20262;-51
2021/01/06 08:19:10;;;;;;;17.27;12.97;;;4.60;99.90;;;;;;5036085;28;20595;-50
2021/01/06 08:21:50;;;;;;;17.97;13.70;;;4.60;99.90;;;;;;5034059;28;20315;-54
2021/01/06 08:24:21;;;;;;;17.63;13.60;;;4.70;99.90;;;;;;5035468;28;20195;-53
2021/01/06 08:26:51;;;;;;;17.83;13.70;;;4.70;99.90;;;;;;5035822;28;20653;-51
2021/01/06 08:29:27;;;;;;;18.17;13.93;;;4.70;99.90;;;;;;5036009;28;20203;-51
2021/01/06 08:32:13;;;;;;;18.43;13.80;;;4.80;99.90;;;;;;5035951;28;20267;-50
2021/01/06 08:34:52;;;;;;;16.60;12.80;;;4.80;99.90;;;;;;5035952;28;20175;-48
2021/01/06 08:37:23;;;;;;;16.20;12.37;;;4.80;99.90;;;;;;5034256;28;20198;-50
2021/01/06 08:39:55;;;;;;;15.73;12.10;;;4.90;99.90;;;;;;5038895;28;20421;-53
2021/01/06 08:42:25;;;;;;;18.00;12.53;;;4.90;99.90;;;;;;5035503;28;20536;-52
2021/01/06 08:44:59;;;;;;;17.07;13.03;;;4.90;99.90;;;;;;5035749;28;20172;-49
2021/01/06 08:47:33;;;;;;;16.93;12.97;;;4.90;99.90;;;;;;5033076;28;20180;-52
2021/01/06 08:50:16;;;;;;;16.53;12.07;;;4.90;99.90;;;;;;5035006;28;20266;-50
2021/01/06 08:52:56;;;;;;;16.10;12.13;;;5.00;99.90;;;;;;5032837;28;20198;-55
2021/01/06 08:55:31;;;;;;;14.97;11.50;;;4.90;99.90;;;;;;5034791;28;20187;-52
2021/01/06 08:58:03;;;;;;;15.27;12.53;;;4.90;99.90;;;;;;5033280;28;20306;-54
2021/01/06 09:00:35;;;;;;;17.50;13.73;;;5.00;99.90;;;;;;5013555;28;20235;-47
2021/01/06 09:03:27;;;;;;;13.10;10.77;;;4.90;99.90;;;;;;5020620;28;20614;-49
2021/01/06 09:06:07;;;;;;;17.17;15.37;;;4.90;99.90;;;;;;5032878;28;20172;-52
2021/01/06 09:08:35;;;;;;;11.93;9.13;;;4.80;99.90;;;;;;5033312;28;20199;-50
2021/01/06 09:11:01;;;;;;;13.83;11.03;;;4.80;99.90;;;;;;5031083;28;20655;-50
2021/01/06 09:13:52;;;;;;;12.47;9.80;;;4.60;99.90;;;;;;5024345;28;20207;-53
2021/01/06 09:16:25;;;;;;;10.80;8.80;;;4.50;99.90;;;;;;5031207;28;20564;-53
2021/01/06 09:19:02;;;;;;;11.77;9.07;;;4.40;99.90;;;;;;5032482;28;20310;-50
2021/01/06 09:21:32;;;;;;;10.93;9.47;;;4.30;99.90;;;;;;5035335;28;20254;-51
2021/01/06 09:24:06;;;;;;;23.57;10.60;;;4.10;99.90;;;;;;5026928;28;20180;-50
2021/01/06 09:26:32;;;;;;;11.80;9.40;;;3.80;99.90;;;;;;5023235;28;20183;-50
2021/01/06 09:29:04;;;;;;;10.40;9.30;;;3.80;99.90;;;;;;5033776;28;20215;-53
2021/01/06 09:31:32;;;;;;;10.80;9.03;;;3.70;99.90;;;;;;5035483;28;20179;-56
2021/01/06 09:33:58;;;;;;;9.30;8.00;;;3.70;99.90;;;;;;5033699;28;20218;-51
2021/01/06 09:36:24;;;;;;;10.43;9.03;;;3.70;99.90;;;;;;5034806;28;20203;-49
2021/01/06 09:38:51;;;;;;;14.17;10.43;;;3.70;99.90;;;;;;5033636;28;20203;-52
2021/01/06 09:41:31;;;;;;;19.53;10.67;;;3.70;99.90;;;;;;5034778;28;20183;-50
2021/01/06 09:44:01;;;;;;;9.63;8.63;;;3.70;99.90;;;;;;5034388;28;20174;-53
2021/01/06 09:46:33;;;;;;;14.27;10.17;;;3.70;99.90;;;;;;5034499;28;20206;-50
2021/01/06 09:49:09;;;;;;;22.80;11.00;;;3.70;99.90;;;;;;5034347;28;20219;-49
2021/01/06 09:51:38;;;;;;;9.57;8.17;;;3.60;99.90;;;;;;5017215;28;20237;-54
2021/01/06 09:54:06;;;;;;;9.73;8.60;;;3.70;99.90;;;;;;5034294;28;20586;-51
2021/01/06 09:56:34;;;;;;;11.10;9.00;;;3.70;99.90;;;;;;5033931;28;20190;-54
2021/01/06 09:59:03;;;;;;;10.67;8.30;;;3.70;99.90;;;;;;5034222;28;20265;-50
2021/01/06 10:01:48;;;;;;;10.23;8.57;;;3.70;99.90;;;;;;5032802;28;20206;-53
2021/01/06 10:04:18;;;;;;;9.90;7.97;;;3.80;99.90;;;;;;5032386;28;20598;-50
2021/01/06 10:07:13;;;;;;;9.90;8.60;;;3.90;99.90;;;;;;5032310;28;20559;-51
2021/01/06 10:09:43;;;;;;;10.90;8.77;;;4.20;99.90;;;;;;5033572;28;20200;-49
2021/01/06 10:12:30;;;;;;;10.20;8.60;;;4.20;99.90;;;;;;5033268;28;20699;-49
2021/01/06 10:15:07;;;;;;;14.47;11.17;;;4.20;99.90;;;;;;5033183;28;20175;-51
2021/01/06 10:17:56;;;;;;;16.27;10.70;;;4.20;99.90;;;;;;5029510;28;20307;-49
2021/01/06 10:20:33;;;;;;;11.50;9.60;;;4.20;99.90;;;;;;5032150;28;20202;-52
2021/01/06 10:23:14;;;;;;;13.97;11.20;;;4.10;99.90;;;;;;5033177;28;20264;-48
2021/01/06 10:25:57;;;;;;;13.77;11.23;;;3.90;99.90;;;;;;5035008;28;20227;-49
2021/01/06 10:28:22;;;;;;;12.13;10.60;;;3.80;99.90;;;;;;5030935;28;20215;-53
2021/01/06 10:31:06;;;;;;;11.60;9.47;;;3.80;99.90;;;;;;5031782;28;20306;-52
2021/01/06 10:33:32;;;;;;;11.03;9.90;;;3.80;99.90;;;;;;5031302;28;20249;-49
2021/01/06 10:35:58;;;;;;;11.67;10.10;;;3.80;99.90;;;;;;5043238;28;20191;-49
2021/01/06 10:38:29;;;;;;;12.60;10.80;;;3.70;99.90;;;;;;5036658;28;20616;-54
2021/01/06 10:41:20;;;;;;;13.37;11.40;;;3.70;99.90;;;;;;5031580;28;20175;-54
2021/01/06 10:43:49;;;;;;;10.33;8.83;;;3.50;99.90;;;;;;5020324;28;20199;-50
2021/01/06 10:46:51;;;;;;;10.53;9.40;;;3.70;99.90;;;;;;5032439;28;20227;-54
2021/01/06 10:49:19;;;;;;;11.07;9.70;;;3.50;99.90;;;;;;5019895;28;20227;-52
2021/01/06 10:51:57;;;;;;;13.27;11.30;;;3.40;99.90;;;;;;5032879;28;20187;-48
2021/01/06 10:54:43;;;;;;;10.50;8.80;;;3.50;99.90;;;;;;5032959;28;20183;-51
2021/01/06 10:57:15;;;;;;;10.73;8.47;;;3.50;99.90;;;;;;5031520;28;20237;-52
2021/01/06 11:00:00;;;;;;;11.53;9.23;;;3.50;99.90;;;;;;5029295;28;20289;-51
2021/01/06 11:03:01;;;;;;;10.20;8.63;;;3.50;99.90;;;;;;5030848;28;20225;-53
2021/01/06 11:05:45;;;;;;;10.13;9.03;;;3.60;99.90;;;;;;5030646;28;20233;-51
2021/01/06 11:08:33;;;;;;;11.97;9.83;;;3.60;99.90;;;;;;5030177;28;20615;-50
2021/01/06 11:11:05;;;;;;;11.77;9.80;;;3.60;99.90;;;;;;5033135;28;20279;-57
2021/01/06 11:13:50;;;;;;;11.13;9.07;;;3.50;99.90;;;;;;5036498;28;20194;-54
2021/01/06 11:16:40;;;;;;;13.27;11.33;;;3.50;99.90;;;;;;5036007;28;20179;-56
2021/01/06 11:19:36;;;;;;;17.50;14.50;;;3.40;99.90;;;;;;5033332;28;20231;-48
2021/01/06 11:22:32;;;;;;;11.10;9.13;;;3.30;99.90;;;;;;5033915;28;20180;-52
2021/01/06 11:25:04;;;;;;;13.53;11.27;;;3.30;99.90;;;;;;5035192;28;20180;-50
2021/01/06 11:27:35;;;;;;;12.60;10.70;;;3.30;99.90;;;;;;5036191;28;20191;-57
2021/01/06 11:30:11;;;;;;;14.63;12.20;;;3.30;99.90;;;;;;5033317;28;20723;-51
2021/01/06 11:32:38;;;;;;;14.13;12.03;;;3.20;99.90;;;;;;5030030;28;20184;-51
2021/01/06 11:35:12;;;;;;;14.77;11.50;;;3.30;99.90;;;;;;5034268;28;20438;-48
2021/01/06 11:37:41;;;;;;;15.47;13.03;;;3.20;99.90;;;;;;5035552;28;20610;-49
2021/01/06 11:40:13;;;;;;;14.67;11.90;;;3.20;99.90;;;;;;5034101;28;20756;-49
2021/01/06 11:43:05;;;;;;;16.37;13.33;;;3.20;99.90;;;;;;5030789;28;20219;-52
2021/01/06 11:45:44;;;;;;;17.70;14.33;;;3.30;99.90;;;;;;5032586;28;20184;-52
2021/01/06 11:48:34;;;;;;;18.87;15.07;;;3.30;99.90;;;;;;5027906;28;20587;-49
2021/01/06 11:51:21;;;;;;;14.40;12.20;;;3.20;99.90;;;;;;4953189;29;20207;-48
2021/01/06 11:54:08;;;;;;;16.83;13.67;;;3.30;99.90;;;;;;4950547;29;20189;-47
2021/01/06 11:56:40;;;;;;;17.13;13.60;;;3.40;99.90;;;;;;4944229;29;20323;-51
2021/01/06 11:59:41;;;;;;;15.20;11.23;;;3.40;99.90;;;;;;4939720;28;20238;-53
2021/01/06 12:02:15;;;;;;;15.93;12.23;;;3.40;99.90;;;;;;4944136;29;20200;-55
2021/01/06 12:05:11;;;;;;;14.90;12.10;;;3.50;99.90;;;;;;4946297;29;20193;-50
2021/01/06 12:07:56;;;;;;;16.27;13.03;;;3.50;99.90;;;;;;4954121;29;20209;-49
2021/01/06 12:10:45;;;;;;;13.17;11.03;;;3.40;99.90;;;;;;4955053;29;20166;-49
2021/01/06 12:13:55;;;;;;;12.00;10.07;;;3.60;99.90;;;;;;4953433;29;20190;-54
2021/01/06 12:16:43;;;;;;;15.77;11.93;;;3.80;99.90;;;;;;4932209;29;20241;-51
2021/01/06 12:19:09;;;;;;;14.43;11.67;;;3.60;99.90;;;;;;4953943;29;20218;-50
2021/01/06 12:21:34;;;;;;;12.47;11.00;;;3.60;99.90;;;;;;4953708;28;20186;-52
2021/01/06 12:24:20;;;;;;;13.83;11.27;;;3.60;99.90;;;;;;4955121;29;20177;-50
2021/01/06 12:26:54;;;;;;;14.87;12.07;;;3.60;99.90;;;;;;4956371;29;20174;-50
2021/01/06 12:29:23;;;;;;;19.17;17.17;;;3.60;99.90;;;;;;5036118;28;20199;-48
2021/01/06 12:32:01;;;;;;;13.43;10.33;;;3.50;99.90;;;;;;5035865;28;20647;-52
2021/01/06 12:34:45;;;;;;;13.87;11.40;;;3.50;99.90;;;;;;5035784;28;20258;-53
2021/01/06 12:37:11;;;;;;;14.50;12.10;;;3.40;99.90;;;;;;5036230;28;20532;-53
2021/01/06 12:39:40;;;;;;;14.63;12.07;;;3.30;99.90;;;;;;5035738;28;20694;-50
2021/01/06 12:42:17;;;;;;;16.67;12.73;;;3.30;99.90;;;;;;5035762;28;20172;-49
2021/01/06 12:45:00;;;;;;;13.13;11.00;;;3.30;99.90;;;;;;5036339;28;20190;-48
2021/01/06 12:47:30;;;;;;;13.57;11.53;;;3.30;99.90;;;;;;5035802;28;20176;-50
2021/01/06 12:50:26;;;;;;;12.80;10.87;;;3.40;99.90;;;;;;5036029;28;20187;-47
2021/01/06 12:52:59;;;;;;;15.13;11.80;;;3.30;99.90;;;;;;5035911;28;20219;-54
2021/01/06 12:55:30;;;;;;;13.33;10.80;;;3.30;99.90;;;;;;5035848;28;20755;-52
2021/01/06 12:58:28;;;;;;;13.47;11.30;;;3.30;99.90;;;;;;5035098;28;20238;-51
2021/01/06 13:01:08;;;;;;;12.70;10.83;;;3.30;99.90;;;;;;5035441;28;20695;-56
2021/01/06 13:03:47;;;;;;;13.47;10.37;;;3.30;99.90;;;;;;5035639;28;20195;-49
2021/01/06 13:06:24;;;;;;;15.80;12.70;;;3.30;99.90;;;;;;5035631;28;20179;-49
2021/01/06 13:08:55;;;;;;;13.07;10.70;;;3.20;99.90;;;;;;5034805;28;20298;-53
2021/01/06 13:11:36;;;;;;;17.10;10.57;;;3.30;99.90;;;;;;5035674;28;20263;-52
2021/01/06 13:14:38;;;;;;;15.17;11.80;;;3.30;99.90;;;;;;5035357;28;20643;-50
2021/01/06 13:17:23;;;;;;;12.93;11.13;;;3.30;99.90;;;;;;5034977;28;20536;-48
2021/01/06 13:20:03;;;;;;;12.87;10.67;;;3.30;99.90;;;;;;5035547;28;20212;-53